sensor_id;sensor_type;location;lat;lon;timestamp;pressure;altitude;pressure_sealevel;temperature;humidity
9235;BME280;4652;42.716;23.218;2022-08-19T00:00:19;94581.31;;;19.19;100.00
9235;BME280;4652;42.716;23.218;2022-08-19T00:07:05;94565.44;;;19.09;100.00
9235;BME280;4652;42.716;23.218;2022-08-19T00:13:48;94602.38;;;19.19;100.00
9235;BME280;4652;42.716;23.218;2022-08-19T00:20:31;94600.50;;;19.07;100.00
9235;BME280;4652;42.716;23.218;2022-08-19T00:27:13;94579.78;;;18.78;100.00
9235;BME280;4652;42.716;23.218;2022-08-19T00:33:56;94577.00;;;18.63;100.00
9235;BME280;4652;42.716;23.218;2022-08-19T00:40:38;94583.56;;;18.74;100.00
9235;BME280;4652;42.716;23.218;2022-08-19T00:47:21;94588.75;;;18.79;100.00
9235;BME280;4652;42.716;23.218;2022-08-19T00:54:04;94562.94;;;18.49;100.00
9235;BME280;4652;42.716;23.218;2022-08-19T01:06:55;94540.50;;;18.15;100.00
9235;BME280;4652;42.716;23.218;2022-08-19T01:13:38;94596.81;;;18.36;100.00
9235;BME280;4652;42.716;23.218;2022-08-19T01:20:22;94585.56;;;18.25;100.00
9235;BME280;4652;42.716;23.218;2022-08-19T01:27:06;94588.19;;;18.22;100.00
9235;BME280;4652;42.716;23.218;2022-08-19T01:33:50;94568.91;;;18.02;100.00
9235;BME280;4652;42.716;23.218;2022-08-19T01:40:34;94584.44;;;17.90;100.00
9235;BME280;4652;42.716;23.218;2022-08-19T01:47:18;94596.69;;;17.96;100.00
9235;BME280;4652;42.716;23.218;2022-08-19T01:54:01;94600.44;;;17.79;100.00
9235;BME280;4652;42.716;23.218;2022-08-19T02:00:43;94608.28;;;17.69;100.00
9235;BME280;4652;42.716;23.218;2022-08-19T02:07:27;94603.16;;;17.67;100.00
9235;BME280;4652;42.716;23.218;2022-08-19T02:14:09;94595.09;;;17.71;100.00
9235;BME280;4652;42.716;23.218;2022-08-19T02:20:52;94602.59;;;17.62;100.00
9235;BME280;4652;42.716;23.218;2022-08-19T02:27:36;94606.84;;;17.50;100.00
9235;BME280;4652;42.716;23.218;2022-08-19T02:34:18;94590.13;;;17.40;100.00
9235;BME280;4652;42.716;23.218;2022-08-19T02:41:03;94603.28;;;17.38;100.00
9235;BME280;4652;42.716;23.218;2022-08-19T02:47:47;94610.16;;;17.23;100.00
9235;BME280;4652;42.716;23.218;2022-08-19T02:54:29;94604.16;;;17.18;100.00
9235;BME280;4652;42.716;23.218;2022-08-19T03:01:13;94621.84;;;17.12;100.00
9235;BME280;4652;42.716;23.218;2022-08-19T03:08:02;94610.09;;;16.99;100.00
9235;BME280;4652;42.716;23.218;2022-08-19T03:14:46;94607.56;;;16.94;100.00
9235;BME280;4652;42.716;23.218;2022-08-19T03:21:30;94610.66;;;16.92;100.00
9235;BME280;4652;42.716;23.218;2022-08-19T03:28:14;94619.94;;;16.91;100.00
9235;BME280;4652;42.716;23.218;2022-08-19T03:34:56;94619.25;;;16.94;100.00
9235;BME280;4652;42.716;23.218;2022-08-19T03:41:40;94625.16;;;16.96;100.00
9235;BME280;4652;42.716;23.218;2022-08-19T03:48:23;94634.84;;;16.85;100.00
9235;BME280;4652;42.716;23.218;2022-08-19T03:55:07;94628.56;;;16.73;100.00
9235;BME280;4652;42.716;23.218;2022-08-19T04:01:49;94647.34;;;16.86;100.00
9235;BME280;4652;42.716;23.218;2022-08-19T04:08:33;94646.19;;;17.08;100.00
9235;BME280;4652;42.716;23.218;2022-08-19T04:15:15;94646.63;;;17.31;100.00
9235;BME280;4652;42.716;23.218;2022-08-19T04:21:57;94665.22;;;17.62;100.00
9235;BME280;4652;42.716;23.218;2022-08-19T04:28:42;94659.16;;;17.89;100.00
9235;BME280;4652;42.716;23.218;2022-08-19T04:35:24;94661.22;;;18.28;100.00
9235;BME280;4652;42.716;23.218;2022-08-19T04:42:06;94652.94;;;18.61;100.00
9235;BME280;4652;42.716;23.218;2022-08-19T04:49:07;94638.72;;;18.95;100.00
9235;BME280;4652;42.716;23.218;2022-08-19T04:55:49;94656.38;;;19.53;100.00
9235;BME280;4652;42.716;23.218;2022-08-19T05:02:31;94656.19;;;20.05;100.00
9235;BME280;4652;42.716;23.218;2022-08-19T05:09:15;94632.34;;;20.52;100.00
9235;BME280;4652;42.716;23.218;2022-08-19T05:15:58;94662.03;;;21.39;100.00
9235;BME280;4652;42.716;23.218;2022-08-19T05:22:41;94655.63;;;21.93;100.00
9235;BME280;4652;42.716;23.218;2022-08-19T05:29:27;94650.03;;;22.31;100.00
9235;BME280;4652;42.716;23.218;2022-08-19T05:36:09;94640.22;;;22.30;100.00
9235;BME280;4652;42.716;23.218;2022-08-19T05:42:51;94656.41;;;22.61;100.00
9235;BME280;4652;42.716;23.218;2022-08-19T05:49:35;94647.13;;;23.92;95.14
9235;BME280;4652;42.716;23.218;2022-08-19T05:56:18;94650.22;;;23.50;98.89
9235;BME280;4652;42.716;23.218;2022-08-19T06:03:00;94631.38;;;23.52;97.33
9235;BME280;4652;42.716;23.218;2022-08-19T06:09:46;94653.06;;;24.34;84.34
9235;BME280;4652;42.716;23.218;2022-08-19T06:16:29;94670.28;;;25.33;77.53
9235;BME280;4652;42.716;23.218;2022-08-19T06:23:12;94663.56;;;27.12;66.61
9235;BME280;4652;42.716;23.218;2022-08-19T06:29:56;94649.16;;;30.60;55.24
9235;BME280;4652;42.716;23.218;2022-08-19T06:36:42;94629.84;;;34.96;44.11
9235;BME280;4652;42.716;23.218;2022-08-19T06:43:24;94649.56;;;37.00;40.32
9235;BME280;4652;42.716;23.218;2022-08-19T06:50:10;94644.31;;;37.20;38.64
9235;BME280;4652;42.716;23.218;2022-08-19T06:56:53;94652.19;;;37.52;39.25
9235;BME280;4652;42.716;23.218;2022-08-19T07:06:58;94646.97;;;39.73;35.76
9235;BME280;4652;42.716;23.218;2022-08-19T07:13:41;94629.47;;;38.89;36.50
9235;BME280;4652;42.716;23.218;2022-08-19T07:20:23;94654.50;;;39.90;35.54
9235;BME280;4652;42.716;23.218;2022-08-19T07:27:07;94646.78;;;39.29;35.77
9235;BME280;4652;42.716;23.218;2022-08-19T07:33:51;94657.31;;;40.29;35.23
9235;BME280;4652;42.716;23.218;2022-08-19T07:40:36;94648.59;;;39.65;35.56
9235;BME280;4652;42.716;23.218;2022-08-19T07:47:20;94631.69;;;38.15;37.29
9235;BME280;4652;42.716;23.218;2022-08-19T07:54:03;94648.06;;;35.25;42.06
9235;BME280;4652;42.716;23.218;2022-08-19T08:00:46;94647.56;;;34.01;44.07
9235;BME280;4652;42.716;23.218;2022-08-19T08:07:30;94650.94;;;33.06;46.77
9235;BME280;4652;42.716;23.218;2022-08-19T08:14:32;94640.78;;;32.47;48.40
9235;BME280;4652;42.716;23.218;2022-08-19T08:21:15;94634.78;;;32.65;48.05
9235;BME280;4652;42.716;23.218;2022-08-19T08:27:59;94615.00;;;33.37;43.49
9235;BME280;4652;42.716;23.218;2022-08-19T08:34:41;94629.16;;;34.16;43.88
9235;BME280;4652;42.716;23.218;2022-08-19T08:41:29;94629.75;;;34.61;45.52
9235;BME280;4652;42.716;23.218;2022-08-19T08:48:20;94605.91;;;34.69;41.84
9235;BME280;4652;42.716;23.218;2022-08-19T08:55:08;94621.91;;;34.81;42.10
9235;BME280;4652;42.716;23.218;2022-08-19T09:01:51;94596.31;;;35.17;41.21
9235;BME280;4652;42.716;23.218;2022-08-19T09:08:40;94599.28;;;35.70;39.49
9235;BME280;4652;42.716;23.218;2022-08-19T09:15:30;94602.84;;;35.14;40.24
9235;BME280;4652;42.716;23.218;2022-08-19T09:22:15;94587.66;;;35.59;39.55
9235;BME280;4652;42.716;23.218;2022-08-19T09:28:58;94585.91;;;35.18;38.86
9235;BME280;4652;42.716;23.218;2022-08-19T09:35:42;94587.66;;;35.59;38.78
9235;BME280;4652;42.716;23.218;2022-08-19T09:42:24;94585.53;;;35.28;37.72
9235;BME280;4652;42.716;23.218;2022-08-19T09:49:08;94582.53;;;34.76;38.06
9235;BME280;4652;42.716;23.218;2022-08-19T09:55:51;94573.25;;;34.29;37.71
9235;BME280;4652;42.716;23.218;2022-08-19T10:02:33;94531.97;;;34.07;35.91
9235;BME280;4652;42.716;23.218;2022-08-19T10:09:17;94553.00;;;34.37;37.80
9235;BME280;4652;42.716;23.218;2022-08-19T10:16:04;94557.91;;;35.05;36.29
9235;BME280;4652;42.716;23.218;2022-08-19T10:22:46;94550.25;;;34.84;38.00
9235;BME280;4652;42.716;23.218;2022-08-19T10:29:30;94538.13;;;35.34;37.14
9235;BME280;4652;42.716;23.218;2022-08-19T10:36:17;94505.34;;;34.41;37.86
9235;BME280;4652;42.716;23.218;2022-08-19T10:42:59;94510.25;;;34.62;38.26
9235;BME280;4652;42.716;23.218;2022-08-19T10:49:43;94538.53;;;34.64;41.82
9235;BME280;4652;42.716;23.218;2022-08-19T10:56:43;94524.31;;;35.05;37.68
9235;BME280;4652;42.716;23.218;2022-08-19T11:03:35;94503.16;;;35.04;37.18
9235;BME280;4652;42.716;23.218;2022-08-19T11:10:19;94522.22;;;35.09;38.75
9235;BME280;4652;42.716;23.218;2022-08-19T11:17:03;94488.81;;;35.02;37.28
9235;BME280;4652;42.716;23.218;2022-08-19T11:23:47;94501.13;;;35.17;38.04
9235;BME280;4652;42.716;23.218;2022-08-19T11:30:30;94490.66;;;34.62;39.21
9235;BME280;4652;42.716;23.218;2022-08-19T11:37:13;94497.69;;;34.54;37.95
9235;BME280;4652;42.716;23.218;2022-08-19T11:43:56;94485.19;;;34.46;38.63
9235;BME280;4652;42.716;23.218;2022-08-19T11:50:40;94475.38;;;34.29;38.36
9235;BME280;4652;42.716;23.218;2022-08-19T11:57:24;94432.56;;;33.94;39.44
9235;BME280;4652;42.716;23.218;2022-08-19T12:04:06;94461.28;;;34.32;39.73
9235;BME280;4652;42.716;23.218;2022-08-19T12:10:49;94431.22;;;34.58;40.22
9235;BME280;4652;42.716;23.218;2022-08-19T12:17:31;94436.72;;;34.83;38.47
9235;BME280;4652;42.716;23.218;2022-08-19T12:24:17;94368.47;;;34.24;37.38
9235;BME280;4652;42.716;23.218;2022-08-19T12:31:07;94362.31;;;34.17;39.61
9235;BME280;4652;42.716;23.218;2022-08-19T13:07:02;94442.34;;;34.36;40.52
9235;BME280;4652;42.716;23.218;2022-08-19T13:13:48;94255.03;;;33.55;37.33
9235;BME280;4652;42.716;23.218;2022-08-19T13:20:31;94379.69;;;34.46;40.50
9235;BME280;4652;42.716;23.218;2022-08-19T13:27:14;94378.13;;;34.45;38.65
9235;BME280;4652;42.716;23.218;2022-08-19T13:33:56;94373.59;;;34.26;37.26
9235;BME280;4652;42.716;23.218;2022-08-19T13:40:39;94369.22;;;34.25;38.46
9235;BME280;4652;42.716;23.218;2022-08-19T13:47:23;94358.59;;;34.33;38.58
9235;BME280;4652;42.716;23.218;2022-08-19T13:54:05;94355.22;;;34.38;37.35
9235;BME280;4652;42.716;23.218;2022-08-19T14:00:47;94357.97;;;34.16;38.17
9235;BME280;4652;42.716;23.218;2022-08-19T14:07:31;94335.16;;;34.17;38.30
9235;BME280;4652;42.716;23.218;2022-08-19T14:14:13;94345.00;;;34.09;40.00
9235;BME280;4652;42.716;23.218;2022-08-19T14:20:55;94344.31;;;34.05;38.88
9235;BME280;4652;42.716;23.218;2022-08-19T14:27:40;94343.44;;;34.08;39.16
9235;BME280;4652;42.716;23.218;2022-08-19T14:34:22;94337.84;;;34.08;38.57
9235;BME280;4652;42.716;23.218;2022-08-19T14:41:13;94337.09;;;33.95;40.08
9235;BME280;4652;42.716;23.218;2022-08-19T14:47:58;94292.88;;;33.56;37.41
9235;BME280;4652;42.716;23.218;2022-08-19T14:54:41;94319.78;;;33.88;39.85
9235;BME280;4652;42.716;23.218;2022-08-19T15:01:23;94312.84;;;33.92;38.24
9235;BME280;4652;42.716;23.218;2022-08-19T15:08:07;94322.38;;;33.82;39.32
9235;BME280;4652;42.716;23.218;2022-08-19T15:14:49;94327.75;;;33.77;39.82
9235;BME280;4652;42.716;23.218;2022-08-19T15:21:31;94312.34;;;33.59;39.19
9235;BME280;4652;42.716;23.218;2022-08-19T15:28:14;94321.38;;;33.51;40.70
9235;BME280;4652;42.716;23.218;2022-08-19T15:34:56;94303.28;;;33.43;39.20
9235;BME280;4652;42.716;23.218;2022-08-19T15:41:38;94316.69;;;33.48;40.40
9235;BME280;4652;42.716;23.218;2022-08-19T15:48:22;94316.81;;;33.44;39.87
9235;BME280;4652;42.716;23.218;2022-08-19T15:55:04;94316.25;;;33.11;40.72
9235;BME280;4652;42.716;23.218;2022-08-19T16:01:47;94312.63;;;32.98;42.26
9235;BME280;4652;42.716;23.218;2022-08-19T16:08:48;94289.41;;;32.76;42.00
9235;BME280;4652;42.716;23.218;2022-08-19T16:15:30;94316.94;;;32.62;43.21
9235;BME280;4652;42.716;23.218;2022-08-19T16:22:15;94307.28;;;32.21;42.97
9235;BME280;4652;42.716;23.218;2022-08-19T16:28:59;94314.56;;;32.03;44.85
9235;BME280;4652;42.716;23.218;2022-08-19T16:35:41;94317.72;;;31.72;44.94
9235;BME280;4652;42.716;23.218;2022-08-19T16:42:23;94330.28;;;31.48;45.46
9235;BME280;4652;42.716;23.218;2022-08-19T16:49:08;94309.94;;;31.15;44.99
9235;BME280;4652;42.716;23.218;2022-08-19T16:55:51;94290.19;;;30.94;44.50
9235;BME280;4652;42.716;23.218;2022-08-19T17:02:34;94334.19;;;30.79;45.66
9235;BME280;4652;42.716;23.218;2022-08-19T17:09:18;94340.84;;;30.65;45.08
9235;BME280;4652;42.716;23.218;2022-08-19T17:16:00;94353.38;;;30.54;44.91
9235;BME280;4652;42.716;23.218;2022-08-19T17:22:43;94336.41;;;30.28;45.09
9235;BME280;4652;42.716;23.218;2022-08-19T17:29:27;94363.81;;;30.26;45.43
9235;BME280;4652;42.716;23.218;2022-08-19T17:36:09;94370.69;;;29.99;46.03
9235;BME280;4652;42.716;23.218;2022-08-19T17:42:51;94374.63;;;29.75;47.00
9235;BME280;4652;42.716;23.218;2022-08-19T17:49:35;94385.19;;;29.33;48.64
9235;BME280;4652;42.716;23.218;2022-08-19T17:56:18;94380.47;;;28.73;51.22
9235;BME280;4652;42.716;23.218;2022-08-19T18:03:02;94378.69;;;28.22;54.74
9235;BME280;4652;42.716;23.218;2022-08-19T18:09:47;94405.97;;;27.76;58.09
9235;BME280;4652;42.716;23.218;2022-08-19T18:16:31;94409.84;;;27.34;61.69
9235;BME280;4652;42.716;23.218;2022-08-19T18:23:13;94408.94;;;26.86;68.57
9235;BME280;4652;42.716;23.218;2022-08-19T18:29:57;94408.38;;;26.11;80.65
9235;BME280;4652;42.716;23.218;2022-08-19T18:36:40;94410.78;;;25.56;86.03
9235;BME280;4652;42.716;23.218;2022-08-19T18:43:22;94422.16;;;25.16;92.20
9235;BME280;4652;42.716;23.218;2022-08-19T18:50:23;94423.19;;;24.69;92.38
9235;BME280;4652;42.716;23.218;2022-08-19T18:57:05;94416.38;;;24.38;92.68
9235;BME280;4652;42.716;23.218;2022-08-19T19:06:53;94443.34;;;24.15;98.97
